Time;durP1;ratioP1;P1;durP2;ratioP2;P2;SDS_P1;SDS_P2;PMS_P1;PMS_P2;Temp;Humidity;BMP_temperature;BMP_pressure;BME280_temperature;BME280_humidity;BME280_pressure;Samples;Min_cycle;Max_cycle;Signal;HPM_P1;HPM_P2
2022/12/30 00:00:14;;;;;;;;;;;;;;;10.40;100.00;100034.53;5080387;28;19938;-66
2022/12/30 00:02:40;;;;;;;;;;;;;;;10.34;100.00;100027.66;5095172;28;19926;-66
2022/12/30 00:05:05;;;;;;;;;;;;;;;10.28;100.00;100022.50;5094751;28;19953;-66
2022/12/30 00:07:34;;;;;;;;;;;;;;;10.23;100.00;100024.44;5081304;28;19934;-66
2022/12/30 00:10:00;;;;;;;;;;;;;;;10.17;100.00;100019.31;5115176;28;20349;-66
2022/12/30 00:34:32;;;;;;;;;;;;;;;10.04;100.00;100036.53;5073218;28;19991;-66
2022/12/30 00:36:58;;;;;;;;;;;;;;;9.99;100.00;100046.41;5072883;28;19954;-66
2022/12/30 00:39:23;;;;;;;;;;;;;;;9.96;100.00;100045.63;5073384;28;19984;-66
2022/12/30 00:44:32;;;;;;;;;;;;;;;9.92;100.00;100043.97;5093190;28;19935;-66
2022/12/30 00:46:58;;;;;;;;;;;;;;;9.84;100.00;100052.19;5089947;28;20039;-66
2022/12/30 00:57:35;;;;;;;;;;;;;;;9.68;100.00;100047.34;5088861;28;19998;-66
2022/12/30 01:00:01;;;;;;;;;;;;;;;9.61;100.00;100044.00;5089169;28;20339;-66
2022/12/30 01:02:26;;;;;;;;;;;;;;;9.57;100.00;100042.31;5092826;28;19953;-66
2022/12/30 01:04:51;;;;;;;;;;;;;;;9.54;100.00;100046.88;5089533;28;20428;-66
2022/12/30 01:07:17;;;;;;;;;;;;;;;9.52;100.00;100049.59;5085751;28;19946;-66
2022/12/30 01:09:42;;;;;;;;;;;;;;;9.51;100.00;100050.47;5072611;28;19934;-66
2022/12/30 01:12:07;;;;;;;;;;;;;;;9.49;100.00;100054.94;5070690;28;19934;-66
2022/12/30 01:14:36;;;;;;;;;;;;;;;9.48;100.00;100050.56;5085660;28;20024;-66
2022/12/30 01:17:02;;;;;;;;;;;;;;;9.41;100.00;100056.09;5092743;28;20528;-66
2022/12/30 01:19:27;;;;;;;;;;;;;;;9.33;100.00;100064.25;5092701;28;19933;-66
2022/12/30 01:21:53;;;;;;;;;;;;;;;9.28;100.00;100060.84;5090678;28;20383;-66
2022/12/30 01:24:18;;;;;;;;;;;;;;;9.23;100.00;100065.41;5071913;28;20355;-65
2022/12/30 01:26:43;;;;;;;;;;;;;;;9.20;100.00;100057.53;5072456;28;19937;-65
2022/12/30 01:29:08;;;;;;;;;;;;;;;9.15;100.00;100054.13;5074571;28;20040;-65
2022/12/30 01:31:34;;;;;;;;;;;;;;;9.14;100.00;100060.34;5072214;28;19932;-66
2022/12/30 01:33:59;;;;;;;;;;;;;;;9.12;100.00;100056.88;5080522;28;20031;-66
2022/12/30 01:36:24;;;;;;;;;;;;;;;9.13;100.00;100067.44;5072137;28;19949;-66
2022/12/30 01:38:50;;;;;;;;;;;;;;;9.10;100.00;100061.34;5071964;28;19927;-65
2022/12/30 01:41:15;;;;;;;;;;;;;;;9.08;100.00;100068.44;5072072;28;20008;-65
2022/12/30 01:43:42;;;;;;;;;;;;;;;9.08;100.00;100071.09;5077228;28;19931;-65
2022/12/30 01:46:07;;;;;;;;;;;;;;;9.07;100.00;100072.03;5092457;28;20024;-65
2022/12/30 01:48:34;;;;;;;;;;;;;;;9.01;100.00;100073.03;5089249;28;20028;-65
2022/12/30 01:51:01;;;;;;;;;;;;;;;8.97;100.00;100070.53;5026498;28;1835237;-65
2022/12/30 01:53:27;;;;;;;;;;;;;;;8.95;100.00;100080.28;5092747;28;19939;-65
2022/12/30 01:55:57;;;;;;;;;;;;;;;8.95;100.00;100082.94;5080529;28;20360;-65
2022/12/30 01:58:30;;;;;;;;;;;;;;;8.90;100.00;100093.66;5072318;28;19971;-65
2022/12/30 02:00:55;;;;;;;;;;;;;;;8.91;100.00;100091.91;5074395;28;19938;-65
2022/12/30 02:03:20;;;;;;;;;;;;;;;8.90;100.00;100090.13;5084490;28;20403;-65
2022/12/30 02:05:46;;;;;;;;;;;;;;;8.90;100.00;100095.44;5110966;28;19953;-65
2022/12/30 02:08:16;;;;;;;;;;;;;;;8.89;100.00;100083.09;5079389;28;20707;-65
2022/12/30 02:10:43;;;;;;;;;;;;;;;8.91;100.00;100076.00;5076915;28;19991;-65
2022/12/30 02:13:12;;;;;;;;;;;;;;;8.90;100.00;100083.06;5074762;28;20394;-65
2022/12/30 02:15:50;;;;;;;;;;;;;;;8.90;100.00;100069.81;5093808;28;20436;-65
2022/12/30 02:18:24;;;;;;;;;;;;;;;8.92;100.00;100072.41;5076183;28;19946;-65
2022/12/30 02:21:09;;;;;;;;;;;;;;;8.95;100.00;100072.31;5080670;28;19935;-65
2022/12/30 02:23:41;;;;;;;;;;;;;;;8.95;100.00;100077.63;5082292;28;19981;-65
2022/12/30 02:26:16;;;;;;;;;;;;;;;8.96;100.00;100082.91;5091704;28;19934;-65
2022/12/30 02:28:47;;;;;;;;;;;;;;;8.93;100.00;100085.63;5092465;28;20693;-65
2022/12/30 02:31:15;;;;;;;;;;;;;;;8.93;100.00;100087.41;5092576;28;19956;-65
2022/12/30 02:33:40;;;;;;;;;;;;;;;8.93;100.00;100095.38;5076899;28;19932;-65
2022/12/30 02:36:20;;;;;;;;;;;;;;;8.92;100.00;100098.94;5071934;28;20326;-65
2022/12/30 02:38:47;;;;;;;;;;;;;;;8.92;100.00;100099.81;5074281;28;19980;-65
2022/12/30 02:46:59;;;;;;;;;;;;;;;8.89;100.00;100099.03;5071871;28;19949;-65
2022/12/30 02:49:25;;;;;;;;;;;;;;;8.85;100.00;100098.22;5071567;28;20371;-65
2022/12/30 02:54:36;;;;;;;;;;;;;;;8.78;100.00;100093.97;5078374;28;19944;-65
2022/12/30 02:57:01;;;;;;;;;;;;;;;8.80;100.00;100099.22;5089558;28;19946;-65
2022/12/30 03:05:25;;;;;;;;;;;;;;;8.81;100.00;100101.00;5091980;28;20351;-65
2022/12/30 03:08:01;;;;;;;;;;;;;;;8.79;100.00;100098.38;5091630;28;19977;-66
2022/12/30 03:13:34;;;;;;;;;;;;;;;8.80;100.00;100099.22;5091881;28;20456;-66
2022/12/30 03:16:02;;;;;;;;;;;;;;;8.80;100.00;100099.22;5074333;28;20425;-65
2022/12/30 03:18:28;;;;;;;;;;;;;;;8.73;100.00;100087.03;5073471;28;19970;-67
2022/12/30 03:20:54;;;;;;;;;;;;;;;8.76;100.00;100095.81;5071519;28;19975;-67
2022/12/30 03:28:48;;;;;;;;;;;;;;;8.70;100.00;100100.34;5091284;28;19963;-67
2022/12/30 03:31:15;;;;;;;;;;;;;;;8.67;100.00;100098.66;5091336;28;20405;-66
2022/12/30 03:33:41;;;;;;;;;;;;;;;8.67;100.00;100100.44;5082753;28;20432;-66
2022/12/30 03:36:12;;;;;;;;;;;;;;;8.65;100.00;100092.50;5070601;28;20080;-66
2022/12/30 03:38:39;;;;;;;;;;;;;;;8.63;100.00;100090.81;5070910;28;19977;-66
2022/12/30 03:41:06;;;;;;;;;;;;;;;8.63;100.00;100093.47;5090195;28;19930;-66
2022/12/30 03:43:32;;;;;;;;;;;;;;;8.61;100.00;100088.22;5076697;28;19939;-66
2022/12/30 03:45:57;;;;;;;;;;;;;;;8.58;100.00;100085.59;5090892;28;20295;-66
2022/12/30 03:48:23;;;;;;;;;;;;;;;8.54;100.00;100083.06;5091074;28;19929;-65
2022/12/30 03:50:48;;;;;;;;;;;;;;;8.42;100.00;100086.88;5089208;28;19957;-65
2022/12/30 03:53:13;;;;;;;;;;;;;;;8.37;100.00;100082.59;5073187;28;19934;-66
2022/12/30 03:55:39;;;;;;;;;;;;;;;8.32;100.00;100071.25;5091562;28;20001;-64
2022/12/30 03:58:04;;;;;;;;;;;;;;;8.27;100.00;100065.16;5077262;28;20353;-64
2022/12/30 04:00:29;;;;;;;;;;;;;;;8.26;100.00;100061.63;5071341;28;19947;-64
2022/12/30 04:02:54;;;;;;;;;;;;;;;8.25;100.00;100056.38;5073581;28;19925;-64
2022/12/30 04:05:20;;;;;;;;;;;;;;;8.25;100.00;100056.38;5089406;28;20410;-64
2022/12/30 04:07:45;;;;;;;;;;;;;;;8.25;100.00;100061.66;5073051;28;19982;-64
2022/12/30 04:10:10;;;;;;;;;;;;;;;8.27;100.00;100063.38;5073745;28;19983;-64
2022/12/30 04:12:35;;;;;;;;;;;;;;;8.30;100.00;100059.78;5075582;28;19933;-64
2022/12/30 04:15:01;;;;;;;;;;;;;;;8.31;100.00;100061.53;5085247;28;19946;-64
2022/12/30 04:17:26;;;;;;;;;;;;;;;8.33;100.00;100059.72;5091211;28;19955;-64
2022/12/30 04:19:51;;;;;;;;;;;;;;;8.35;100.00;100063.22;5090867;28;19928;-64
2022/12/30 04:22:16;;;;;;;;;;;;;;;8.35;100.00;100055.25;5086254;28;19929;-64
2022/12/30 04:24:42;;;;;;;;;;;;;;;8.42;100.00;100051.56;5090998;28;19938;-64
2022/12/30 04:27:07;;;;;;;;;;;;;;;8.39;100.00;100043.66;5088528;28;19939;-64
2022/12/30 04:29:32;;;;;;;;;;;;;;;8.37;100.00;100042.84;5090808;28;19950;-64
2022/12/30 04:31:57;;;;;;;;;;;;;;;8.35;100.00;100047.31;5090731;28;19930;-65
2022/12/30 04:34:23;;;;;;;;;;;;;;;8.31;100.00;100035.03;5074204;28;20448;-66
2022/12/30 04:36:48;;;;;;;;;;;;;;;8.29;100.00;100044.78;5070683;28;19963;-64
2022/12/30 04:39:13;;;;;;;;;;;;;;;8.29;100.00;100056.25;5073675;28;20459;-65
2022/12/30 04:41:39;;;;;;;;;;;;;;;8.31;100.00;100053.56;5074327;28;19977;-64
2022/12/30 04:44:04;;;;;;;;;;;;;;;8.30;100.00;100055.38;5080060;28;20636;-64
2022/12/30 04:46:30;;;;;;;;;;;;;;;8.29;100.00;100050.06;5090014;28;19986;-64
2022/12/30 04:48:56;;;;;;;;;;;;;;;8.26;100.00;100052.81;5093509;28;19934;-64
2022/12/30 04:51:21;;;;;;;;;;;;;;;8.23;100.00;100044.91;5093737;28;20282;-64
2022/12/30 04:53:46;;;;;;;;;;;;;;;8.16;100.00;100051.22;5089650;28;19940;-64
2022/12/30 04:56:12;;;;;;;;;;;;;;;8.08;100.00;100051.41;5093437;28;20071;-64
2022/12/30 04:58:37;;;;;;;;;;;;;;;8.00;100.00;100056.91;5091330;28;20028;-64
2022/12/30 05:01:02;;;;;;;;;;;;;;;7.92;100.00;100057.97;5092259;28;19933;-64
2022/12/30 05:03:28;;;;;;;;;;;;;;;7.88;100.00;100056.25;5094097;28;19934;-64
2022/12/30 05:05:53;;;;;;;;;;;;;;;7.84;100.00;100050.16;5081217;28;19950;-64
2022/12/30 05:08:18;;;;;;;;;;;;;;;7.81;100.00;100052.88;5074142;28;19959;-64
2022/12/30 05:10:43;;;;;;;;;;;;;;;7.80;100.00;100056.44;5074278;28;19930;-64
2022/12/30 05:13:09;;;;;;;;;;;;;;;7.79;100.00;100057.31;5074346;28;20509;-64
2022/12/30 05:15:34;;;;;;;;;;;;;;;7.74;100.00;100064.47;5076134;28;19940;-64
2022/12/30 05:17:59;;;;;;;;;;;;;;;7.69;100.00;100066.34;5074317;28;19957;-66
2022/12/30 05:20:25;;;;;;;;;;;;;;;7.63;100.00;100066.50;5089595;28;20036;-66
2022/12/30 05:22:50;;;;;;;;;;;;;;;7.56;100.00;100059.56;5092189;28;19925;-66
2022/12/30 05:27:59;;;;;;;;;;;;;;;7.52;100.00;100047.31;5073498;28;19974;-66
2022/12/30 05:30:25;;;;;;;;;;;;;;;7.48;100.00;100055.34;5075835;28;19937;-66
2022/12/30 05:32:50;;;;;;;;;;;;;;;7.42;100.00;100051.03;5073638;28;19935;-66
2022/12/30 05:35:16;;;;;;;;;;;;;;;7.36;100.00;100058.22;5075401;28;20363;-66
2022/12/30 05:37:41;;;;;;;;;;;;;;;7.29;100.00;100056.59;5073265;28;20386;-66
2022/12/30 05:40:07;;;;;;;;;;;;;;;7.21;100.00;100062.03;5073454;28;19980;-66
2022/12/30 05:42:32;;;;;;;;;;;;;;;7.12;100.00;100062.19;5073102;28;20383;-65
2022/12/30 05:44:57;;;;;;;;;;;;;;;7.03;100.00;100056.19;5089554;28;19946;-65
2022/12/30 05:47:23;;;;;;;;;;;;;;;6.92;100.00;100059.00;5092466;28;20039;-64
2022/12/30 05:49:48;;;;;;;;;;;;;;;6.87;100.00;100060.84;5080373;28;20000;-65
2022/12/30 05:52:14;;;;;;;;;;;;;;;6.82;100.00;100067.16;5070511;28;19983;-65
2022/12/30 05:54:40;;;;;;;;;;;;;;;6.73;100.00;100068.16;5072585;28;19935;-65
2022/12/30 05:57:05;;;;;;;;;;;;;;;6.65;100.00;100072.69;5091682;28;19962;-65
2022/12/30 05:59:30;;;;;;;;;;;;;;;6.57;100.00;100067.53;5094790;28;19933;-65
2022/12/30 06:01:56;;;;;;;;;;;;;;;6.46;100.00;100060.66;5088171;28;20385;-65
2022/12/30 06:04:21;;;;;;;;;;;;;;;6.37;100.00;100063.47;5084913;28;19976;-65
2022/12/30 06:06:46;;;;;;;;;;;;;;;6.29;100.00;100068.84;5074936;28;19932;-65
2022/12/30 06:09:11;;;;;;;;;;;;;;;6.25;100.00;100071.53;5075504;28;19959;-66
2022/12/30 06:11:37;;;;;;;;;;;;;;;6.22;100.00;100079.53;5072245;28;20294;-65
2022/12/30 06:14:02;;;;;;;;;;;;;;;6.21;100.00;100083.06;5078576;28;19938;-65
2022/12/30 06:16:27;;;;;;;;;;;;;;;6.20;100.00;100087.47;5088390;28;20725;-65
2022/12/30 06:18:53;;;;;;;;;;;;;;;6.28;100.00;100079.41;5092795;28;20019;-65
2022/12/30 06:21:18;;;;;;;;;;;;;;;6.33;100.00;100077.59;5090800;28;19938;-65
2022/12/30 06:23:43;;;;;;;;;;;;;;;6.36;100.00;100078.41;5109770;28;19935;-65
2022/12/30 06:26:08;;;;;;;;;;;;;;;6.36;100.00;100085.47;5088843;28;19943;-65
2022/12/30 06:28:34;;;;;;;;;;;;;;;6.30;100.00;100085.56;5072297;28;19928;-65
2022/12/30 06:30:59;;;;;;;;;;;;;;;6.19;100.00;100087.50;5071848;28;19926;-65
2022/12/30 06:33:24;;;;;;;;;;;;;;;6.08;100.00;100095.53;5072435;28;19946;-65
2022/12/30 06:35:50;;;;;;;;;;;;;;;6.01;100.00;100090.38;5076822;28;20282;-65
2022/12/30 06:38:15;;;;;;;;;;;;;;;6.00;100.00;100085.97;5073001;28;19939;-65
2022/12/30 06:40:41;;;;;;;;;;;;;;;6.01;100.00;100080.66;5072021;28;19957;-65
2022/12/30 06:43:06;;;;;;;;;;;;;;;6.02;100.00;100071.88;5074295;28;19973;-65
2022/12/30 06:45:31;;;;;;;;;;;;;;;5.98;100.00;100080.72;5090378;28;20417;-65
2022/12/30 06:47:56;;;;;;;;;;;;;;;5.94;100.00;100072.88;5091768;28;19937;-65
2022/12/30 06:50:22;;;;;;;;;;;;;;;5.87;100.00;100072.06;5091253;28;20010;-65
2022/12/30 06:52:47;;;;;;;;;;;;;;;5.85;100.00;100079.13;5088092;28;19943;-65
2022/12/30 06:55:12;;;;;;;;;;;;;;;5.84;100.00;100084.44;5090984;28;19929;-65
2022/12/30 06:57:37;;;;;;;;;;;;;;;5.80;100.00;100088.00;5090934;28;19952;-65
2022/12/30 07:00:05;;;;;;;;;;;;;;;5.76;100.00;100083.63;5088701;28;19931;-65
2022/12/30 07:02:31;;;;;;;;;;;;;;;5.68;100.00;100080.22;5071443;28;19944;-65
2022/12/30 07:04:56;;;;;;;;;;;;;;;5.54;100.00;100082.13;5089054;28;20581;-65
2022/12/30 07:07:21;;;;;;;;;;;;;;;5.47;100.00;100077.81;5087049;28;19937;-65
2022/12/30 07:09:46;;;;;;;;;;;;;;;5.44;100.00;100069.94;5070256;28;19935;-65
2022/12/30 07:12:12;;;;;;;;;;;;;;;5.47;100.00;100067.28;5069682;28;19957;-65
2022/12/30 07:14:37;;;;;;;;;;;;;;;5.50;100.00;100069.88;5082236;28;20320;-65
2022/12/30 07:17:02;;;;;;;;;;;;;;;5.52;100.00;100062.81;5084518;28;19946;-65
2022/12/30 07:19:28;;;;;;;;;;;;;;;5.54;100.00;100066.28;5071561;28;19977;-65
2022/12/30 07:21:53;;;;;;;;;;;;;;;5.57;100.00;100072.41;5071133;28;19983;-65
2022/12/30 07:24:18;;;;;;;;;;;;;;;5.63;100.00;100072.34;5073118;28;20304;-65
2022/12/30 07:26:43;;;;;;;;;;;;;;;5.73;100.00;100073.13;5087378;28;19943;-65
2022/12/30 07:29:09;;;;;;;;;;;;;;;5.76;100.00;100055.47;5091760;28;20606;-65
2022/12/30 07:31:34;;;;;;;;;;;;;;;5.79;100.00;100067.75;5091389;28;19934;-65
2022/12/30 07:33:59;;;;;;;;;;;;;;;5.76;100.00;100052.84;5091317;28;19932;-65
2022/12/30 07:36:24;;;;;;;;;;;;;;;5.78;100.00;100060.72;5077115;28;19949;-65
2022/12/30 07:38:50;;;;;;;;;;;;;;;5.77;100.00;100062.50;5070983;28;19930;-65
2022/12/30 07:41:15;;;;;;;;;;;;;;;5.85;100.00;100057.16;5071241;28;19973;-65
2022/12/30 07:43:40;;;;;;;;;;;;;;;5.97;100.00;100062.25;5073774;28;20375;-65
2022/12/30 07:46:06;;;;;;;;;;;;;;;6.07;100.00;100053.31;5073624;28;19932;-65
2022/12/30 07:48:32;;;;;;;;;;;;;;;6.17;100.00;100045.25;5090243;28;19936;-65
2022/12/30 07:50:57;;;;;;;;;;;;;;;6.26;100.00;100038.97;5091036;28;19972;-66
2022/12/30 07:53:22;;;;;;;;;;;;;;;6.34;100.00;100045.88;5088329;28;19930;-66
2022/12/30 07:55:48;;;;;;;;;;;;;;;6.44;100.00;100051.91;5071955;28;20443;-66
2022/12/30 07:58:13;;;;;;;;;;;;;;;6.52;100.00;100047.38;5072956;28;19930;-65
2022/12/30 08:00:38;;;;;;;;;;;;;;;6.59;100.00;100043.72;5073581;28;19964;-66
2022/12/30 08:03:04;;;;;;;;;;;;;;;6.65;100.00;100048.91;5075486;28;20075;-65
2022/12/30 08:05:29;;;;;;;;;;;;;;;6.78;100.00;100045.16;5081436;28;19959;-65
2022/12/30 08:07:54;;;;;;;;;;;;;;;6.92;100.00;100043.16;5071072;28;20374;-65
2022/12/30 08:10:20;;;;;;;;;;;;;;;7.00;100.00;100038.59;5080686;28;19937;-65
2022/12/30 08:12:46;;;;;;;;;;;;;;;7.14;100.00;100035.69;5088991;28;19935;-65
2022/12/30 08:15:12;;;;;;;;;;;;;;;7.21;100.00;100025.00;5095184;28;20001;-65
2022/12/30 08:17:37;;;;;;;;;;;;;;;7.32;100.00;100024.78;5090612;28;20390;-65
2022/12/30 08:20:03;;;;;;;;;;;;;;;7.38;100.00;100014.94;5095376;28;20151;-65
2022/12/30 08:22:28;;;;;;;;;;;;;;;7.50;100.00;100016.47;5094938;28;19952;-65
2022/12/30 08:24:53;;;;;;;;;;;;;;;7.62;100.00;100011.81;5095072;28;19930;-65
2022/12/30 08:27:19;;;;;;;;;;;;;;;7.78;100.00;100002.63;5080102;28;19938;-65
2022/12/30 08:29:44;;;;;;;;;;;;;;;7.99;100.00;99999.50;5074626;28;19927;-66
2022/12/30 08:32:09;;;;;;;;;;;;;;;8.16;100.00;99995.59;5076226;28;19975;-65
2022/12/30 08:34:35;;;;;;;;;;;;;;;8.33;100.00;99986.41;5094010;28;19931;-65
2022/12/30 08:37:00;;;;;;;;;;;;;;;8.38;100.00;99984.50;5085655;28;20433;-66
2022/12/30 08:39:25;;;;;;;;;;;;;;;8.56;100.00;99988.47;5073294;28;19924;-65
2022/12/30 08:41:50;;;;;;;;;;;;;;;8.78;100.00;99989.69;5073111;28;19935;-65
2022/12/30 08:44:16;;;;;;;;;;;;;;;8.90;100.00;99984.91;5081396;28;19943;-66
2022/12/30 08:46:41;;;;;;;;;;;;;;;9.07;100.00;99973.88;5084797;28;19975;-66
2022/12/30 08:49:07;;;;;;;;;;;;;;;9.24;100.00;99963.66;5073230;28;20383;-66
2022/12/30 08:51:33;;;;;;;;;;;;;;;9.49;100.00;99972.66;5087500;28;20003;-66
2022/12/30 08:53:58;;;;;;;;;;;;;;;9.78;100.00;99967.38;5078171;28;20014;-66
2022/12/30 08:56:27;;;;;;;;;;;;;;;10.44;100.00;99956.44;5093129;28;20001;-66
2022/12/30 08:58:52;;;;;;;;;;;;;;;11.30;100.00;99948.91;5080757;28;20394;-66
2022/12/30 09:01:21;;;;;;;;;;;;;;;11.92;100.00;99943.94;5079383;28;19943;-66
2022/12/30 09:03:47;;;;;;;;;;;;;;;12.56;99.65;99944.84;5092936;28;19930;-66
2022/12/30 09:06:13;;;;;;;;;;;;;;;12.74;92.89;99946.75;5092421;28;19951;-63
2022/12/30 09:08:39;;;;;;;;;;;;;;;12.90;89.28;99938.03;5075225;28;19995;-66
2022/12/30 09:11:12;;;;;;;;;;;;;;;13.03;86.38;99939.25;5073635;28;20038;-66
2022/12/30 09:13:38;;;;;;;;;;;;;;;13.36;83.84;99930.69;5078395;28;20024;-66
2022/12/30 09:16:05;;;;;;;;;;;;;;;14.32;79.73;99932.31;5093901;28;20328;-63
2022/12/30 09:18:30;;;;;;;;;;;;;;;15.18;74.75;99921.63;5090762;28;19998;-64
2022/12/30 09:20:55;;;;;;;;;;;;;;;15.73;70.67;99910.56;5092178;28;20380;-64
2022/12/30 09:23:20;;;;;;;;;;;;;;;16.00;65.85;99918.91;5093758;28;19935;-63
2022/12/30 09:25:46;;;;;;;;;;;;;;;16.09;64.47;99920.22;5081039;28;19941;-63
2022/12/30 09:28:11;;;;;;;;;;;;;;;15.98;63.14;99918.13;5073510;28;19927;-63
2022/12/30 09:30:37;;;;;;;;;;;;;;;15.72;64.12;99919.56;5082950;28;20270;-63
2022/12/30 09:33:02;;;;;;;;;;;;;;;15.65;63.21;99914.63;5093580;28;20276;-63
2022/12/30 09:35:27;;;;;;;;;;;;;;;15.03;64.40;99909.03;5093873;28;19935;-63
2022/12/30 09:37:53;;;;;;;;;;;;;;;14.73;66.10;99900.78;5080763;28;20422;-63
2022/12/30 09:40:33;;;;;;;;;;;;;;;14.71;68.05;99897.31;5073244;28;19934;-63
2022/12/30 09:43:15;;;;;;;;;;;;;;;14.77;69.01;99886.31;5074836;28;19978;-63
2022/12/30 09:45:41;;;;;;;;;;;;;;;14.61;70.09;99885.38;5092401;28;19933;-63
2022/12/30 09:48:10;;;;;;;;;;;;;;;14.75;69.67;99888.19;5091371;28;20309;-63
2022/12/30 09:50:40;;;;;;;;;;;;;;;14.80;68.17;99875.44;5075495;28;19958;-63
2022/12/30 09:53:08;;;;;;;;;;;;;;;14.87;68.71;99871.50;5073050;28;20031;-65
2022/12/30 09:55:37;;;;;;;;;;;;;;;14.61;69.38;99874.66;5073070;28;19980;-66
2022/12/30 09:58:08;;;;;;;;;;;;;;;14.61;70.66;99865.75;5074747;28;19937;-66
2022/12/30 10:00:34;;;;;;;;;;;;;;;14.51;70.94;99847.47;5072729;28;20757;-64
2022/12/30 10:03:02;;;;;;;;;;;;;;;14.59;71.93;99847.09;5074505;28;19925;-64
2022/12/30 10:05:30;;;;;;;;;;;;;;;14.78;71.23;99850.53;5092922;28;20039;-66
2022/12/30 10:08:00;;;;;;;;;;;;;;;15.06;71.80;99828.50;5079435;28;19959;-66
2022/12/30 10:10:25;;;;;;;;;;;;;;;15.71;67.81;99840.09;5075040;28;19940;-65
2022/12/30 10:12:57;;;;;;;;;;;;;;;16.22;67.91;99846.09;5077409;28;19938;-65
2022/12/30 10:15:27;;;;;;;;;;;;;;;16.66;64.91;99857.78;5089737;28;19935;-65
2022/12/30 10:18:18;;;;;;;;;;;;;;;16.27;62.80;99850.25;5092439;28;19994;-65
2022/12/30 10:20:44;;;;;;;;;;;;;;;15.66;65.19;99850.22;5055520;28;19938;-65
2022/12/30 10:23:20;;;;;;;;;;;;;;;15.29;68.36;99849.56;5091579;28;20291;-65
2022/12/30 10:25:51;;;;;;;;;;;;;;;14.79;69.33;99857.66;5079842;28;19941;-65
2022/12/30 10:28:24;;;;;;;;;;;;;;;14.59;71.93;99846.22;5071504;28;19928;-65
2022/12/30 10:30:49;;;;;;;;;;;;;;;14.25;71.77;99845.25;5073482;28;20029;-65
2022/12/30 10:33:21;;;;;;;;;;;;;;;14.11;74.33;99837.03;5071443;28;20071;-65
2022/12/30 10:35:53;;;;;;;;;;;;;;;13.73;76.20;99829.16;5070886;28;19979;-65
2022/12/30 10:38:21;;;;;;;;;;;;;;;13.60;77.51;99806.63;5085780;28;19941;-64
2022/12/30 10:40:55;;;;;;;;;;;;;;;13.35;77.99;99806.06;5091887;28;19940;-65
2022/12/30 10:43:34;;;;;;;;;;;;;;;13.16;79.17;99814.94;5091594;28;19998;-66
2022/12/30 10:46:15;;;;;;;;;;;;;;;13.05;81.24;99803.88;5088710;28;19936;-62
2022/12/30 10:48:53;;;;;;;;;;;;;;;13.12;82.41;99794.66;5072008;28;19976;-62
2022/12/30 10:51:18;;;;;;;;;;;;;;;13.00;82.14;99789.84;5071666;28;19976;-63
2022/12/30 10:53:46;;;;;;;;;;;;;;;12.99;83.97;99788.13;5089406;28;19963;-62
2022/12/30 10:56:19;;;;;;;;;;;;;;;13.03;83.79;99784.38;5091801;28;19961;-62
2022/12/30 10:58:46;;;;;;;;;;;;;;;13.10;83.68;99790.31;5091604;28;19955;-62
2022/12/30 11:01:19;;;;;;;;;;;;;;;13.42;83.42;99788.81;5088193;28;19940;-63
2022/12/30 11:03:52;;;;;;;;;;;;;;;13.71;82.60;99777.56;5091941;28;19943;-63
2022/12/30 11:06:20;;;;;;;;;;;;;;;13.70;80.09;99776.72;5090598;28;19974;-63
2022/12/30 11:08:46;;;;;;;;;;;;;;;13.63;79.14;99769.94;5089519;28;19946;-63
2022/12/30 11:11:11;;;;;;;;;;;;;;;13.45;80.03;99769.94;5091739;28;19934;-64
2022/12/30 11:16:28;;;;;;;;;;;;;;;12.70;81.80;99761.88;5091406;28;19999;-63
2022/12/30 11:18:56;;;;;;;;;;;;;;;12.60;83.28;99752.53;5087197;28;19929;-64
2022/12/30 11:21:25;;;;;;;;;;;;;;;12.50;84.20;99756.59;5053413;28;20040;-65
2022/12/30 11:23:53;;;;;;;;;;;;;;;12.37;85.59;99755.34;5071681;28;19954;-65
2022/12/30 11:26:20;;;;;;;;;;;;;;;12.27;86.27;99769.19;5091462;28;19941;-63
2022/12/30 11:28:51;;;;;;;;;;;;;;;12.15;87.98;99753.69;5082256;28;19942;-61
2022/12/30 11:31:17;;;;;;;;;;;;;;;12.17;88.15;99749.19;5071017;28;20014;-63
2022/12/30 11:33:51;;;;;;;;;;;;;;;12.14;89.57;99749.31;5070930;28;19961;-61
2022/12/30 11:36:29;;;;;;;;;;;;;;;12.15;90.50;99746.59;5070977;28;20002;-62
2022/12/30 11:39:14;;;;;;;;;;;;;;;12.00;89.97;99733.91;5064496;28;20595;-61
2022/12/30 11:41:47;;;;;;;;;;;;;;;11.88;90.92;99735.28;5063572;28;20381;-61
2022/12/30 11:44:14;;;;;;;;;;;;;;;11.81;90.30;99733.81;5079226;28;19941;-61
2022/12/30 11:46:43;;;;;;;;;;;;;;;11.66;91.72;99734.44;5091984;28;19935;-61
2022/12/30 11:49:27;;;;;;;;;;;;;;;11.61;92.16;99727.56;5115265;28;20266;-62
2022/12/30 11:51:54;;;;;;;;;;;;;;;11.65;91.68;99722.06;5105564;28;19957;-62
2022/12/30 11:54:21;;;;;;;;;;;;;;;11.58;91.85;99719.69;5075775;28;19937;-61
2022/12/30 11:56:51;;;;;;;;;;;;;;;11.48;91.01;99719.19;5076346;28;20026;-65
2022/12/30 11:59:18;;;;;;;;;;;;;;;11.53;91.04;99716.34;5089648;28;20304;-61
2022/12/30 12:01:45;;;;;;;;;;;;;;;11.64;91.34;99708.81;5098439;28;19933;-61
2022/12/30 12:04:29;;;;;;;;;;;;;;;11.69;91.17;99698.84;5088486;28;19952;-61
2022/12/30 12:06:56;;;;;;;;;;;;;;;11.64;91.80;99684.84;5077916;28;19939;-61
2022/12/30 12:09:26;;;;;;;;;;;;;;;11.61;91.69;99687.59;5075048;28;19936;-62
2022/12/30 12:11:51;;;;;;;;;;;;;;;11.63;90.57;99685.75;5079895;28;19941;-62
2022/12/30 12:14:25;;;;;;;;;;;;;;;11.52;90.79;99682.66;5082988;28;19933;-61
2022/12/30 12:16:55;;;;;;;;;;;;;;;11.64;91.72;99674.19;5091174;28;19955;-61
2022/12/30 12:19:29;;;;;;;;;;;;;;;11.64;91.90;99676.84;5091036;28;20316;-62
2022/12/30 12:21:56;;;;;;;;;;;;;;;11.64;92.78;99676.84;5095377;28;19933;-61
2022/12/30 12:24:26;;;;;;;;;;;;;;;11.72;91.89;99674.72;5086631;28;19935;-61
2022/12/30 12:26:57;;;;;;;;;;;;;;;11.65;92.88;99667.91;5074902;28;19940;-62
2022/12/30 12:29:23;;;;;;;;;;;;;;;11.66;93.09;99661.66;5074985;28;20404;-62
2022/12/30 12:32:18;;;;;;;;;;;;;;;11.53;92.78;99657.75;5074493;28;20112;-61
2022/12/30 12:34:46;;;;;;;;;;;;;;;11.55;93.73;99650.53;5077299;28;19938;-62
2022/12/30 12:37:20;;;;;;;;;;;;;;;11.54;94.08;99639.06;5074451;28;19980;-61
2022/12/30 12:39:58;;;;;;;;;;;;;;;11.56;93.62;99637.19;5076965;28;19944;-61
2022/12/30 12:42:35;;;;;;;;;;;;;;;11.62;93.91;99626.25;5074464;28;19954;-62
2022/12/30 12:45:01;;;;;;;;;;;;;;;11.60;94.00;99616.59;5088967;28;19933;-62
2022/12/30 12:47:38;;;;;;;;;;;;;;;11.49;93.45;99614.41;5093805;28;19980;-62
2022/12/30 12:50:24;;;;;;;;;;;;;;;11.44;92.46;99602.22;5077746;28;19966;-62
2022/12/30 12:53:07;;;;;;;;;;;;;;;11.38;92.70;99607.81;5022974;28;20465;-62
2022/12/30 12:55:43;;;;;;;;;;;;;;;11.30;93.08;99596.63;5091462;28;19937;-62
2022/12/30 12:58:16;;;;;;;;;;;;;;;11.23;92.97;99595.13;5094948;28;19972;-62
2022/12/30 13:01:09;;;;;;;;;;;;;;;11.25;93.06;99593.28;5089310;28;19936;-61
2022/12/30 13:03:42;;;;;;;;;;;;;;;11.28;93.40;99596.69;5094029;28;19961;-61
2022/12/30 13:06:17;;;;;;;;;;;;;;;11.24;93.87;99586.19;5094330;28;19934;-61
2022/12/30 13:08:42;;;;;;;;;;;;;;;11.15;94.60;99586.59;5092212;28;19947;-61
2022/12/30 13:11:07;;;;;;;;;;;;;;;11.11;94.97;99582.31;5094296;28;20396;-61
2022/12/30 13:13:35;;;;;;;;;;;;;;;11.03;95.68;99584.44;5094356;28;20426;-61
2022/12/30 13:16:06;;;;;;;;;;;;;;;10.94;96.52;99576.84;5091481;28;20067;-61
2022/12/30 13:18:33;;;;;;;;;;;;;;;10.99;95.72;99569.56;5075857;28;19986;-61
2022/12/30 13:21:03;;;;;;;;;;;;;;;11.00;96.25;99564.16;5073738;28;19965;-61
2022/12/30 13:23:43;;;;;;;;;;;;;;;11.03;97.04;99571.13;5075782;28;19929;-61
2022/12/30 13:26:09;;;;;;;;;;;;;;;11.01;97.00;99565.88;5073453;28;19999;-61
2022/12/30 13:28:35;;;;;;;;;;;;;;;10.95;97.56;99549.31;5075501;28;20303;-61
2022/12/30 13:31:20;;;;;;;;;;;;;;;10.89;98.19;99546.91;5076182;28;20366;-61
2022/12/30 13:33:52;;;;;;;;;;;;;;;10.86;99.83;99547.88;5093652;28;19933;-61
2022/12/30 13:36:21;;;;;;;;;;;;;;;10.87;100.00;99543.44;5093962;28;19958;-61
2022/12/30 13:38:55;;;;;;;;;;;;;;;10.84;100.00;99540.91;5084550;28;20026;-61
2022/12/30 13:41:26;;;;;;;;;;;;;;;10.82;100.00;99534.78;5075359;28;19945;-61
2022/12/30 13:43:54;;;;;;;;;;;;;;;10.79;100.00;99530.44;5077558;28;20711;-61